Time;durP1;ratioP1;P1;durP2;ratioP2;P2;SDS_P1;SDS_P2;PMS_P1;PMS_P2;Temp;Humidity;BMP_temperature;BMP_pressure;BME280_temperature;BME280_humidity;BME280_pressure;Samples;Min_cycle;Max_cycle;Signal;HPM_P1;HPM_P2
2023/03/27 00:01:14;;;;;;;1.95;0.70;;;;;;;;;;4960012;28;20035;-80
2023/03/27 00:03:43;;;;;;;2.10;0.82;;;;;;;;;;4986995;28;20377;-80
2023/03/27 00:06:15;;;;;;;3.15;0.93;;;;;;;;;;4955361;28;20057;-80
2023/03/27 00:08:47;;;;;;;2.08;0.75;;;;;;;;;;4986688;28;20074;-80
2023/03/27 00:11:15;;;;;;;4.90;0.82;;;;;;;;;;4987449;28;20456;-80
2023/03/27 00:13:43;;;;;;;2.25;0.80;;;;;;;;;;4971508;28;20060;-80
2023/03/27 00:16:36;;;;;;;2.30;0.70;;;;;;;;;;4963161;28;20434;-79
2023/03/27 00:19:03;;;;;;;2.55;1.02;;;;;;;;;;4960542;28;20053;-79
2023/03/27 00:21:34;;;;;;;7.85;0.77;;;;;;;;;;4988317;28;20038;-80
2023/03/27 00:24:01;;;;;;;5.38;1.02;;;;;;;;;;4986298;28;20137;-80
2023/03/27 00:26:29;;;;;;;2.17;0.68;;;;;;;;;;5003096;28;20038;-80
2023/03/27 00:28:57;;;;;;;4.90;0.80;;;;;;;;;;4987032;28;20439;-80
2023/03/27 00:31:25;;;;;;;1.98;0.80;;;;;;;;;;4969884;28;20056;-80
2023/03/27 00:33:53;;;;;;;2.08;0.70;;;;;;;;;;4945885;28;20057;-80
2023/03/27 00:36:21;;;;;;;5.55;1.40;;;;;;;;;;4969971;28;20504;-80
2023/03/27 00:38:51;;;;;;;2.70;0.73;;;;;;;;;;4984342;28;20101;-80
2023/03/27 00:41:21;;;;;;;2.22;0.90;;;;;;;;;;5006092;28;20105;-80
2023/03/27 00:43:55;;;;;;;4.18;0.80;;;;;;;;;;4961117;28;20504;-80
2023/03/27 00:46:30;;;;;;;1.67;0.77;;;;;;;;;;4968275;28;20046;-80
2023/03/27 00:49:02;;;;;;;2.10;0.90;;;;;;;;;;4976767;28;20049;-81
2023/03/27 00:51:31;;;;;;;6.95;0.82;;;;;;;;;;4970229;28;20042;-80
2023/03/27 00:54:33;;;;;;;5.03;0.65;;;;;;;;;;4992329;28;20046;-80
2023/03/27 00:57:05;;;;;;;3.00;0.73;;;;;;;;;;4975879;28;20053;-80
2023/03/27 00:59:37;;;;;;;4.40;0.80;;;;;;;;;;4958044;28;20074;-80
2023/03/27 01:02:12;;;;;;;2.63;0.60;;;;;;;;;;4953990;28;20129;-80
2023/03/27 01:04:41;;;;;;;4.22;0.70;;;;;;;;;;4969650;28;20050;-80
2023/03/27 01:07:21;;;;;;;6.03;0.70;;;;;;;;;;4966226;28;20050;-81
2023/03/27 01:10:15;;;;;;;6.10;0.70;;;;;;;;;;5004008;28;20046;-80
2023/03/27 01:13:12;;;;;;;8.50;0.90;;;;;;;;;;4985732;28;20038;-80
2023/03/27 01:16:07;;;;;;;3.92;0.95;;;;;;;;;;4987082;28;20041;-80
2023/03/27 01:19:35;;;;;;;1.83;0.45;;;;;;;;;;4985978;28;20042;-81
2023/03/27 01:22:10;;;;;;;5.40;0.73;;;;;;;;;;4970464;28;20396;-80
2023/03/27 01:24:54;;;;;;;6.20;1.08;;;;;;;;;;5001912;28;20069;-80
2023/03/27 01:27:51;;;;;;;3.83;0.68;;;;;;;;;;4970059;28;20046;-80
2023/03/27 01:30:23;;;;;;;1.17;0.60;;;;;;;;;;4946714;28;20039;-80
2023/03/27 01:33:33;;;;;;;1.67;0.55;;;;;;;;;;4979694;28;20100;-80
2023/03/27 01:36:16;;;;;;;1.25;0.73;;;;;;;;;;4973224;28;20042;-80
2023/03/27 01:39:49;;;;;;;1.63;0.70;;;;;;;;;;4987237;28;20370;-80
2023/03/27 01:42:20;;;;;;;7.43;0.85;;;;;;;;;;5048885;28;20123;-80
2023/03/27 01:44:59;;;;;;;3.38;0.60;;;;;;;;;;4985419;28;20050;-80
2023/03/27 01:47:49;;;;;;;3.03;0.95;;;;;;;;;;4986676;28;20042;-80
2023/03/27 01:50:29;;;;;;;5.07;0.80;;;;;;;;;;4970700;28;20095;-80
2023/03/27 01:53:12;;;;;;;2.90;1.00;;;;;;;;;;4961184;28;20038;-80
2023/03/27 01:55:47;;;;;;;2.17;0.65;;;;;;;;;;4971078;28;20042;-80
2023/03/27 01:58:23;;;;;;;4.60;0.85;;;;;;;;;;4987290;28;20053;-80
2023/03/27 02:01:00;;;;;;;3.53;0.68;;;;;;;;;;4965755;28;20038;-80
2023/03/27 02:03:35;;;;;;;3.75;0.57;;;;;;;;;;5001114;28;20050;-80
2023/03/27 02:06:33;;;;;;;2.35;0.80;;;;;;;;;;4984783;28;20467;-80
2023/03/27 02:09:23;;;;;;;3.20;0.75;;;;;;;;;;4985587;28;20047;-80
2023/03/27 02:12:00;;;;;;;5.63;0.80;;;;;;;;;;4979890;28;20122;-80
2023/03/27 02:14:36;;;;;;;2.65;0.80;;;;;;;;;;4985984;28;20514;-80
2023/03/27 02:17:28;;;;;;;2.53;0.68;;;;;;;;;;4966119;28;20045;-80
2023/03/27 02:20:13;;;;;;;3.72;0.80;;;;;;;;;;4972421;28;20485;-80
2023/03/27 02:22:44;;;;;;;5.47;0.82;;;;;;;;;;4985415;28;20400;-80
2023/03/27 02:25:39;;;;;;;5.63;0.80;;;;;;;;;;5001583;28;20042;-80
2023/03/27 02:28:33;;;;;;;3.63;0.50;;;;;;;;;;4954722;28;20075;-80
2023/03/27 02:31:30;;;;;;;4.63;0.80;;;;;;;;;;4969802;28;20087;-80
2023/03/27 02:34:10;;;;;;;3.58;0.63;;;;;;;;;;4985435;28;20056;-80
2023/03/27 02:37:24;;;;;;;2.90;0.85;;;;;;;;;;4947432;28;20400;-80
2023/03/27 02:40:30;;;;;;;2.70;0.73;;;;;;;;;;5007221;28;20519;-80
2023/03/27 02:47:07;;;;;;;4.40;1.20;;;;;;;;;;5006523;28;20041;-80
2023/03/27 02:49:50;;;;;;;5.85;0.80;;;;;;;;;;5008147;28;20060;-80
2023/03/27 02:52:29;;;;;;;1.00;0.60;;;;;;;;;;5004023;28;20046;-80
2023/03/27 02:55:15;;;;;;;6.45;0.98;;;;;;;;;;5005741;28;20038;-80
2023/03/27 02:57:48;;;;;;;5.05;1.00;;;;;;;;;;4964130;28;20096;-80
2023/03/27 03:00:40;;;;;;;5.22;0.95;;;;;;;;;;4988277;28;20045;-80
2023/03/27 03:03:40;;;;;;;4.22;1.17;;;;;;;;;;5005706;28;20054;-80
2023/03/27 03:06:28;;;;;;;2.38;0.57;;;;;;;;;;4990793;28;20189;-80
2023/03/27 03:09:03;;;;;;;1.83;0.80;;;;;;;;;;4995410;28;20041;-80
2023/03/27 03:11:45;;;;;;;4.15;1.30;;;;;;;;;;4988893;28;20049;-80
2023/03/27 03:14:39;;;;;;;4.95;1.20;;;;;;;;;;5006129;28;20053;-80
2023/03/27 03:17:10;;;;;;;4.43;1.10;;;;;;;;;;4974360;28;20058;-80
2023/03/27 03:19:39;;;;;;;5.90;0.90;;;;;;;;;;5041112;28;20039;-80
2023/03/27 03:22:13;;;;;;;4.78;0.93;;;;;;;;;;4984870;28;20111;-80
2023/03/27 03:24:42;;;;;;;4.53;1.25;;;;;;;;;;4972869;28;20442;-80
2023/03/27 03:27:13;;;;;;;3.97;1.00;;;;;;;;;;4984821;28;20046;-80
2023/03/27 03:29:55;;;;;;;6.32;0.90;;;;;;;;;;4988144;28;20037;-80
2023/03/27 03:32:27;;;;;;;3.15;1.20;;;;;;;;;;4971719;28;20143;-80
2023/03/27 03:34:55;;;;;;;1.83;0.85;;;;;;;;;;4973310;28;20670;-80
2023/03/27 03:37:27;;;;;;;4.10;1.08;;;;;;;;;;4983310;28;20034;-80
2023/03/27 03:39:55;;;;;;;5.07;0.93;;;;;;;;;;4984676;28;20044;-80
2023/03/27 03:42:23;;;;;;;3.03;1.13;;;;;;;;;;4963539;28;20057;-80
2023/03/27 03:44:53;;;;;;;2.85;0.98;;;;;;;;;;4976058;28;20031;-80
2023/03/27 03:47:23;;;;;;;2.40;0.93;;;;;;;;;;4965277;28;20043;-80
2023/03/27 03:49:51;;;;;;;4.30;1.10;;;;;;;;;;5005102;28;20045;-80
2023/03/27 03:52:19;;;;;;;7.53;1.08;;;;;;;;;;4988118;28;20121;-80
2023/03/27 03:54:47;;;;;;;3.92;1.10;;;;;;;;;;4971767;28;20145;-80
2023/03/27 03:57:15;;;;;;;3.63;1.42;;;;;;;;;;4972766;28;20149;-80
2023/03/27 03:59:57;;;;;;;5.57;1.02;;;;;;;;;;4954071;28;20141;-80
2023/03/27 04:02:57;;;;;;;4.60;1.30;;;;;;;;;;4970455;28;20050;-80
2023/03/27 04:05:34;;;;;;;10.80;1.35;;;;;;;;;;4986854;28;20432;-80
2023/03/27 04:08:01;;;;;;;2.40;0.80;;;;;;;;;;4987240;28;20038;-80
2023/03/27 04:10:40;;;;;;;3.67;1.02;;;;;;;;;;4990173;28;20050;-80
2023/03/27 04:13:23;;;;;;;1.95;0.88;;;;;;;;;;4991247;28;20095;-80
2023/03/27 04:16:00;;;;;;;6.40;1.55;;;;;;;;;;4976368;28;20050;-80
2023/03/27 04:18:38;;;;;;;7.10;1.08;;;;;;;;;;4956755;28;20054;-80
2023/03/27 04:21:16;;;;;;;2.88;0.93;;;;;;;;;;4963600;28;20041;-80
2023/03/27 04:23:47;;;;;;;7.85;1.25;;;;;;;;;;4986430;28;20821;-80
2023/03/27 04:26:29;;;;;;;2.83;1.27;;;;;;;;;;4981597;28;20039;-80
2023/03/27 04:29:41;;;;;;;6.07;1.23;;;;;;;;;;4989676;28;20047;-80
2023/03/27 04:33:01;;;;;;;4.65;0.88;;;;;;;;;;4977410;28;20054;-80
2023/03/27 04:35:53;;;;;;;3.28;1.13;;;;;;;;;;4986331;28;20046;-80
2023/03/27 04:39:02;;;;;;;3.20;0.80;;;;;;;;;;5002459;28;20041;-80
2023/03/27 04:42:03;;;;;;;8.15;1.10;;;;;;;;;;4974876;28;20439;-80
2023/03/27 04:44:31;;;;;;;4.35;1.30;;;;;;;;;;4972283;28;20039;-80
2023/03/27 04:47:01;;;;;;;3.80;0.90;;;;;;;;;;4973362;28;20049;-80
2023/03/27 04:49:37;;;;;;;3.75;1.05;;;;;;;;;;4969121;28;20466;-80
2023/03/27 04:52:16;;;;;;;5.18;1.63;;;;;;;;;;4980544;28;20538;-80
2023/03/27 04:55:36;;;;;;;4.88;1.15;;;;;;;;;;4986976;28;20136;-80
2023/03/27 04:58:32;;;;;;;8.20;1.20;;;;;;;;;;5059363;28;20606;-80
2023/03/27 05:01:07;;;;;;;5.60;1.02;;;;;;;;;;4958807;28;20141;-80
2023/03/27 05:04:19;;;;;;;4.00;1.10;;;;;;;;;;4971819;28;20045;-80
2023/03/27 05:07:11;;;;;;;10.73;1.33;;;;;;;;;;4955141;28;20544;-80
2023/03/27 05:09:43;;;;;;;2.75;1.27;;;;;;;;;;5000285;28;20117;-80
2023/03/27 05:12:13;;;;;;;9.40;1.58;;;;;;;;;;4987228;28;20041;-80
2023/03/27 05:14:49;;;;;;;2.22;1.17;;;;;;;;;;4971937;28;20091;-80
2023/03/27 05:17:40;;;;;;;4.95;1.60;;;;;;;;;;4969112;28;20046;-80
2023/03/27 05:20:13;;;;;;;5.90;2.15;;;;;;;;;;4973560;28;20121;-80
2023/03/27 05:23:09;;;;;;;9.00;1.50;;;;;;;;;;5003068;28;20018;-80
2023/03/27 05:25:44;;;;;;;5.53;1.50;;;;;;;;;;4964338;28;20038;-81
2023/03/27 05:28:33;;;;;;;8.68;1.65;;;;;;;;;;4983704;28;20035;-80
2023/03/27 05:31:01;;;;;;;5.15;1.48;;;;;;;;;;4986940;28;20038;-80
2023/03/27 05:33:35;;;;;;;2.03;1.17;;;;;;;;;;4959874;28;20046;-79
2023/03/27 05:36:04;;;;;;;6.07;1.60;;;;;;;;;;4971971;28;20626;-80
2023/03/27 05:38:35;;;;;;;4.90;1.35;;;;;;;;;;4970504;28;20141;-80
2023/03/27 05:41:09;;;;;;;4.90;1.70;;;;;;;;;;4965348;28;20042;-80
2023/03/27 05:43:41;;;;;;;2.85;1.52;;;;;;;;;;4970841;28;20043;-80
2023/03/27 05:46:09;;;;;;;2.90;1.33;;;;;;;;;;4971699;28;20133;-80
2023/03/27 05:48:37;;;;;;;3.72;1.40;;;;;;;;;;4970699;28;20065;-79
2023/03/27 05:51:05;;;;;;;3.53;1.60;;;;;;;;;;4971490;28;20049;-79
2023/03/27 05:53:35;;;;;;;6.20;1.83;;;;;;;;;;4977863;28;20046;-80
2023/03/27 05:56:27;;;;;;;5.55;1.40;;;;;;;;;;4970975;28;20158;-80
2023/03/27 05:58:59;;;;;;;4.70;1.40;;;;;;;;;;5001996;28;20070;-80
2023/03/27 06:01:29;;;;;;;6.13;1.75;;;;;;;;;;4970161;28;20034;-80
2023/03/27 06:04:03;;;;;;;6.22;1.40;;;;;;;;;;4971353;28;20527;-80
2023/03/27 06:06:54;;;;;;;4.95;1.20;;;;;;;;;;4962692;28;20125;-80
2023/03/27 06:09:24;;;;;;;4.88;1.48;;;;;;;;;;4969557;28;20139;-80
2023/03/27 06:12:19;;;;;;;3.95;1.20;;;;;;;;;;4988827;28;20045;-80
2023/03/27 06:14:51;;;;;;;10.98;1.50;;;;;;;;;;4971476;28;20435;-80
2023/03/27 06:18:05;;;;;;;3.35;1.20;;;;;;;;;;4975982;28;20046;-80
2023/03/27 06:20:37;;;;;;;4.80;1.23;;;;;;;;;;4972039;28;20531;-80
2023/03/27 06:23:08;;;;;;;4.35;1.17;;;;;;;;;;4970931;28;20066;-80
2023/03/27 06:25:38;;;;;;;6.75;1.67;;;;;;;;;;4967933;28;20050;-80
2023/03/27 06:28:08;;;;;;;10.45;1.40;;;;;;;;;;5002679;28;20049;-80
2023/03/27 06:30:49;;;;;;;2.05;0.85;;;;;;;;;;4968558;28;20569;-79
2023/03/27 06:33:35;;;;;;;2.75;0.82;;;;;;;;;;4981819;28;20043;-80
2023/03/27 06:36:43;;;;;;;2.67;0.93;;;;;;;;;;4954602;28;20045;-80
2023/03/27 06:39:11;;;;;;;6.18;1.38;;;;;;;;;;4981265;28;20068;-80
2023/03/27 06:41:47;;;;;;;4.82;1.42;;;;;;;;;;4966225;28;20042;-80
2023/03/27 06:44:17;;;;;;;4.95;1.35;;;;;;;;;;4964706;28;20543;-80
2023/03/27 06:46:59;;;;;;;3.22;1.17;;;;;;;;;;4983883;28;20547;-80
2023/03/27 06:49:35;;;;;;;4.55;1.13;;;;;;;;;;4981272;28;20050;-80
2023/03/27 06:52:11;;;;;;;5.38;1.38;;;;;;;;;;4985429;28;20050;-80
2023/03/27 06:54:45;;;;;;;6.95;1.27;;;;;;;;;;4952483;28;20052;-79
2023/03/27 06:57:45;;;;;;;3.97;1.00;;;;;;;;;;4952245;28;20601;-80
2023/03/27 07:00:21;;;;;;;3.13;0.90;;;;;;;;;;4998858;28;20075;-80
2023/03/27 07:03:13;;;;;;;3.22;1.20;;;;;;;;;;4982323;28;20042;-80
2023/03/27 07:06:01;;;;;;;2.83;1.20;;;;;;;;;;4979035;28;20058;-80
2023/03/27 07:08:55;;;;;;;6.75;1.20;;;;;;;;;;4966519;28;20082;-79
2023/03/27 07:11:24;;;;;;;7.65;1.52;;;;;;;;;;4970458;28;20053;-80
2023/03/27 07:13:57;;;;;;;5.32;1.40;;;;;;;;;;4983432;28;20043;-79
2023/03/27 07:16:27;;;;;;;3.95;1.55;;;;;;;;;;4966229;28;20061;-80
2023/03/27 07:19:19;;;;;;;4.85;1.48;;;;;;;;;;4997569;28;20042;-79
2023/03/27 07:21:59;;;;;;;8.85;2.00;;;;;;;;;;4982898;28;20550;-80
2023/03/27 07:24:27;;;;;;;5.28;1.80;;;;;;;;;;4975443;28;20058;-80
2023/03/27 07:26:55;;;;;;;4.47;1.50;;;;;;;;;;4966701;28;20096;-80
2023/03/27 07:30:00;;;;;;;5.50;1.75;;;;;;;;;;4998963;28;20513;-80
2023/03/27 07:32:31;;;;;;;4.80;1.50;;;;;;;;;;4948240;28;20058;-80
2023/03/27 07:35:05;;;;;;;6.95;1.77;;;;;;;;;;4964096;28;20051;-80
2023/03/27 07:38:00;;;;;;;10.13;1.45;;;;;;;;;;4958830;28;20120;-80
2023/03/27 07:40:34;;;;;;;5.03;1.30;;;;;;;;;;4980220;28;20148;-80
2023/03/27 07:43:41;;;;;;;2.35;1.20;;;;;;;;;;4985230;28;20058;-80
2023/03/27 07:46:33;;;;;;;10.48;2.50;;;;;;;;;;4982477;28;20125;-80
2023/03/27 07:49:08;;;;;;;2.65;0.95;;;;;;;;;;4978748;28;20054;-80
2023/03/27 07:51:35;;;;;;;11.07;1.20;;;;;;;;;;4965221;28;20433;-80
2023/03/27 07:54:03;;;;;;;8.65;0.88;;;;;;;;;;4948498;28;20120;-80
2023/03/27 07:56:39;;;;;;;2.95;0.82;;;;;;;;;;4964807;28;20131;-80
2023/03/27 07:59:33;;;;;;;1.70;0.73;;;;;;;;;;4982003;28;20556;-80
2023/03/27 08:02:32;;;;;;;7.35;1.35;;;;;;;;;;4965160;28;20046;-80
2023/03/27 08:05:04;;;;;;;3.08;0.82;;;;;;;;;;4980239;28;20038;-80
2023/03/27 08:07:39;;;;;;;5.30;1.38;;;;;;;;;;4994107;28;20045;-80
2023/03/27 08:10:08;;;;;;;5.72;0.77;;;;;;;;;;4965349;28;20070;-79
2023/03/27 08:12:47;;;;;;;2.47;0.80;;;;;;;;;;4964996;28;20101;-80
2023/03/27 08:15:20;;;;;;;3.85;0.80;;;;;;;;;;4966089;28;20395;-80
2023/03/27 08:17:52;;;;;;;4.95;1.00;;;;;;;;;;5000160;28;20054;-80
2023/03/27 08:20:29;;;;;;;5.40;1.13;;;;;;;;;;4956559;28;20044;-80
2023/03/27 08:23:07;;;;;;;5.03;0.93;;;;;;;;;;4981554;28;20038;-80
2023/03/27 08:25:59;;;;;;;2.60;0.82;;;;;;;;;;4986209;28;20478;-80
2023/03/27 08:28:33;;;;;;;2.45;0.90;;;;;;;;;;4973810;28;20108;-80
2023/03/27 08:31:08;;;;;;;9.10;1.05;;;;;;;;;;4952009;28;20042;-80
2023/03/27 08:33:38;;;;;;;10.82;1.23;;;;;;;;;;4983903;28;20046;-79
2023/03/27 08:36:15;;;;;;;6.25;1.23;;;;;;;;;;4967135;28;20053;-80
2023/03/27 08:38:53;;;;;;;2.63;0.90;;;;;;;;;;5062621;28;20421;-80
2023/03/27 08:41:37;;;;;;;2.55;0.57;;;;;;;;;;4971119;28;20042;-80
2023/03/27 08:44:22;;;;;;;3.72;0.88;;;;;;;;;;4979235;28;20550;-80
2023/03/27 08:46:58;;;;;;;3.95;0.60;;;;;;;;;;4969443;28;20549;-80
2023/03/27 08:49:33;;;;;;;2.65;0.95;;;;;;;;;;4959358;28;20064;-80
2023/03/27 08:52:30;;;;;;;3.55;0.70;;;;;;;;;;5022886;28;20065;-80
2023/03/27 08:55:41;;;;;;;7.05;0.90;;;;;;;;;;5020625;28;20104;-80
2023/03/27 08:58:27;;;;;;;4.43;0.90;;;;;;;;;;5008436;28;20037;-80
2023/03/27 09:01:20;;;;;;;2.53;0.50;;;;;;;;;;5041215;28;20049;-80
2023/03/27 09:04:08;;;;;;;1.30;0.60;;;;;;;;;;5003505;28;20144;-80
2023/03/27 09:07:01;;;;;;;2.70;0.60;;;;;;;;;;5000545;28;20045;-80
2023/03/27 09:10:30;;;;;;;1.67;0.50;;;;;;;;;;5002675;28;20081;-81
2023/03/27 09:13:17;;;;;;;2.28;0.70;;;;;;;;;;5041880;28;20037;-80
2023/03/27 09:15:58;;;;;;;3.20;0.75;;;;;;;;;;5006562;28;20057;-80
2023/03/27 09:18:48;;;;;;;3.35;0.80;;;;;;;;;;5039117;28;20045;-80
2023/03/27 09:21:27;;;;;;;5.60;0.75;;;;;;;;;;5042025;28;20052;-80
2023/03/27 09:24:05;;;;;;;1.52;0.50;;;;;;;;;;5021637;28;20042;-81
2023/03/27 09:27:17;;;;;;;1.92;0.73;;;;;;;;;;5022946;28;20045;-80
2023/03/27 09:30:13;;;;;;;2.33;0.82;;;;;;;;;;4997438;28;20065;-81
2023/03/27 09:32:50;;;;;;;2.50;0.73;;;;;;;;;;4981532;28;20546;-81
2023/03/27 09:35:20;;;;;;;3.78;1.00;;;;;;;;;;4994626;28;20047;-80
2023/03/27 09:37:58;;;;;;;3.35;0.50;;;;;;;;;;4960475;28;20045;-81
2023/03/27 09:40:44;;;;;;;4.03;0.70;;;;;;;;;;4998214;28;20149;-81
2023/03/27 09:43:39;;;;;;;2.22;0.63;;;;;;;;;;4982605;28;20038;-81
2023/03/27 09:46:34;;;;;;;8.95;0.80;;;;;;;;;;4984400;28;20049;-81
2023/03/27 09:49:17;;;;;;;4.30;0.90;;;;;;;;;;4984547;28;20468;-81
2023/03/27 09:55:33;;;;;;;2.38;0.80;;;;;;;;;;4980684;28;20060;-81
2023/03/27 09:58:19;;;;;;;3.03;0.63;;;;;;;;;;4965564;28;20844;-81
2023/03/27 10:01:05;;;;;;;1.08;0.60;;;;;;;;;;4965636;28;20768;-80
2023/03/27 10:03:53;;;;;;;4.88;0.82;;;;;;;;;;4963670;28;22000;-81
2023/03/27 10:06:42;;;;;;;2.90;1.00;;;;;;;;;;4964451;28;20038;-81
2023/03/27 10:09:23;;;;;;;3.60;0.88;;;;;;;;;;4976744;28;20055;-81
2023/03/27 10:12:03;;;;;;;4.55;0.93;;;;;;;;;;4949438;28;20073;-80
2023/03/27 10:14:34;;;;;;;2.38;0.65;;;;;;;;;;4977589;28;20049;-81
2023/03/27 10:17:04;;;;;;;2.92;0.60;;;;;;;;;;4927898;28;20964;-81
2023/03/27 10:19:40;;;;;;;4.20;0.70;;;;;;;;;;4961455;28;20496;-81
2023/03/27 10:22:29;;;;;;;5.32;0.85;;;;;;;;;;4983739;28;20091;-81
2023/03/27 10:24:59;;;;;;;2.20;0.60;;;;;;;;;;4982787;28;20038;-81
2023/03/27 10:28:05;;;;;;;4.53;1.00;;;;;;;;;;4963855;28;20038;-81
2023/03/27 10:31:02;;;;;;;1.67;0.73;;;;;;;;;;4971145;28;20129;-81
2023/03/27 10:33:44;;;;;;;3.58;0.50;;;;;;;;;;4966079;28;20026;-80
2023/03/27 10:36:20;;;;;;;5.82;0.90;;;;;;;;;;4972918;28;20121;-81
2023/03/27 10:38:59;;;;;;;1.75;0.43;;;;;;;;;;4954854;28;20095;-81
2023/03/27 10:41:46;;;;;;;2.58;0.43;;;;;;;;;;4967179;28;20050;-81
2023/03/27 10:44:19;;;;;;;3.28;0.47;;;;;;;;;;4989264;28;20043;-81
2023/03/27 10:46:53;;;;;;;1.85;0.45;;;;;;;;;;4963859;28;20084;-82
2023/03/27 10:50:02;;;;;;;2.28;0.90;;;;;;;;;;4979208;28;20059;-81
2023/03/27 10:53:03;;;;;;;0.73;0.30;;;;;;;;;;4975866;28;20042;-81
2023/03/27 10:56:04;;;;;;;1.98;0.25;;;;;;;;;;4978639;28;20123;-81
2023/03/27 10:58:50;;;;;;;2.17;0.60;;;;;;;;;;4947813;28;20472;-81
2023/03/27 11:01:33;;;;;;;3.50;0.50;;;;;;;;;;4952977;28;20447;-81
2023/03/27 11:04:18;;;;;;;1.88;0.50;;;;;;;;;;4968076;28;20037;-81
2023/03/27 11:07:02;;;;;;;0.32;0.22;;;;;;;;;;4996478;28;20092;-81
2023/03/27 11:09:35;;;;;;;2.20;0.43;;;;;;;;;;4982615;28;20082;-81
2023/03/27 11:12:17;;;;;;;1.45;0.50;;;;;;;;;;4965567;28;20034;-80
2023/03/27 11:15:06;;;;;;;0.30;0.30;;;;;;;;;;4997424;28;20114;-81
2023/03/27 11:17:52;;;;;;;1.50;0.32;;;;;;;;;;4982323;28;20046;-79
2023/03/27 11:21:03;;;;;;;1.02;0.47;;;;;;;;;;4965311;28;20038;-80
2023/03/27 11:23:58;;;;;;;1.85;0.60;;;;;;;;;;5021653;28;20111;-80
2023/03/27 11:26:46;;;;;;;2.78;0.82;;;;;;;;;;5004940;28;20037;-80
2023/03/27 11:29:27;;;;;;;0.77;0.35;;;;;;;;;;5020222;28;20132;-80
2023/03/27 11:32:32;;;;;;;1.10;0.52;;;;;;;;;;5006286;28;20033;-80
2023/03/27 11:35:09;;;;;;;1.77;0.60;;;;;;;;;;5023887;28;20058;-80
2023/03/27 11:38:13;;;;;;;1.55;0.57;;;;;;;;;;5020749;28;20046;-81
2023/03/27 11:40:44;;;;;;;1.58;0.60;;;;;;;;;;5015304;28;20119;-80
2023/03/27 11:43:13;;;;;;;2.90;0.68;;;;;;;;;;5016882;28;20508;-80
2023/03/27 11:45:46;;;;;;;1.48;0.55;;;;;;;;;;5017639;28;20069;-80
2023/03/27 11:48:24;;;;;;;1.58;0.50;;;;;;;;;;5001745;28;20128;-80
2023/03/27 11:51:17;;;;;;;0.93;0.43;;;;;;;;;;5005201;28;20053;-81
2023/03/27 11:54:29;;;;;;;6.00;0.60;;;;;;;;;;5006616;28;20045;-81
2023/03/27 11:57:10;;;;;;;1.85;0.50;;;;;;;;;;5005403;28;20051;-80
2023/03/27 11:59:52;;;;;;;3.03;0.73;;;;;;;;;;5004780;28;20523;-80
2023/03/27 12:02:44;;;;;;;1.70;0.52;;;;;;;;;;4969369;28;20038;-80
2023/03/27 12:05:41;;;;;;;2.22;0.65;;;;;;;;;;4968781;28;21217;-80
2023/03/27 12:08:14;;;;;;;3.05;0.40;;;;;;;;;;4968473;28;20129;-81
2023/03/27 12:10:48;;;;;;;0.40;0.20;;;;;;;;;;4968973;28;20066;-81
2023/03/27 12:13:21;;;;;;;3.50;0.52;;;;;;;;;;4966449;28;20095;-81
2023/03/27 12:16:27;;;;;;;4.07;0.50;;;;;;;;;;4967413;28;20100;-81
2023/03/27 12:19:30;;;;;;;0.77;0.40;;;;;;;;;;4970767;28;20034;-80
2023/03/27 12:23:09;;;;;;;2.42;0.40;;;;;;;;;;4985576;28;20135;-80
2023/03/27 12:26:30;;;;;;;2.63;0.50;;;;;;;;;;4982870;28;20041;-80
2023/03/27 12:29:22;;;;;;;1.50;0.30;;;;;;;;;;4986274;28;20062;-80
2023/03/27 12:32:21;;;;;;;3.05;0.82;;;;;;;;;;4985171;28;20048;-81
2023/03/27 12:35:02;;;;;;;2.10;0.60;;;;;;;;;;5004262;28;20132;-80
2023/03/27 12:37:47;;;;;;;1.17;0.47;;;;;;;;;;4982803;28;20085;-80
2023/03/27 12:40:36;;;;;;;1.98;0.60;;;;;;;;;;5019816;28;20607;-80
2023/03/27 12:43:19;;;;;;;2.08;0.98;;;;;;;;;;4987144;28;20057;-80
2023/03/27 12:46:11;;;;;;;3.08;0.70;;;;;;;;;;4988770;28;20045;-80
2023/03/27 12:48:53;;;;;;;0.52;0.35;;;;;;;;;;5012548;28;20050;-81
2023/03/27 12:51:43;;;;;;;1.67;0.60;;;;;;;;;;4988842;28;20054;-80
2023/03/27 12:54:17;;;;;;;1.98;0.60;;;;;;;;;;4981907;28;20472;-80
2023/03/27 12:57:06;;;;;;;1.10;0.52;;;;;;;;;;4960759;28;20064;-80
2023/03/27 12:59:44;;;;;;;5.00;0.60;;;;;;;;;;4960607;28;23011;-81
2023/03/27 13:02:55;;;;;;;1.33;0.63;;;;;;;;;;4997879;28;20074;-81
2023/03/27 13:06:13;;;;;;;2.05;0.55;;;;;;;;;;4989057;28;20064;-81
2023/03/27 13:08:59;;;;;;;4.28;1.25;;;;;;;;;;4981288;28;20077;-80
2023/03/27 13:11:58;;;;;;;3.75;0.73;;;;;;;;;;4986501;28;20050;-80
2023/03/27 13:14:45;;;;;;;0.80;0.32;;;;;;;;;;4972488;28;20045;-80
2023/03/27 13:17:34;;;;;;;4.20;1.13;;;;;;;;;;4961772;28;20176;-80
2023/03/27 13:20:24;;;;;;;1.83;0.50;;;;;;;;;;4963019;28;20608;-80
2023/03/27 13:23:12;;;;;;;2.22;0.70;;;;;;;;;;4965860;28;20069;-80
2023/03/27 13:26:12;;;;;;;3.88;0.52;;;;;;;;;;4969699;28;20047;-80
2023/03/27 13:28:51;;;;;;;2.00;0.80;;;;;;;;;;4970442;28;20504;-80
2023/03/27 13:31:48;;;;;;;2.53;0.50;;;;;;;;;;4952134;28;20056;-81
2023/03/27 13:34:40;;;;;;;5.60;0.57;;;;;;;;;;4970227;28;20042;-81
2023/03/27 13:37:33;;;;;;;2.00;0.70;;;;;;;;;;4975426;28;20038;-80
2023/03/27 13:40:29;;;;;;;3.17;0.50;;;;;;;;;;4962816;28;20555;-80
2023/03/27 13:43:32;;;;;;;3.17;0.40;;;;;;;;;;4937905;28;20042;-80
2023/03/27 13:46:17;;;;;;;3.83;0.70;;;;;;;;;;4980602;28;20034;-81
2023/03/27 13:49:24;;;;;;;1.80;0.57;;;;;;;;;;5001832;28;20113;-81
2023/03/27 13:52:51;;;;;;;4.57;0.60;;;;;;;;;;4966484;28;20062;-80
2023/03/27 13:55:49;;;;;;;;;;;;;;;;;;4985567;28;20168;-80
2023/03/27 13:59:16;;;;;;;1.02;0.40;;;;;;;;;;4984704;28;19917;-80
2023/03/27 14:01:58;;;;;;;3.85;0.95;;;;;;;;;;4966632;28;20125;-81
2023/03/27 14:05:00;;;;;;;2.53;0.70;;;;;;;;;;4967378;28;20438;-80
2023/03/27 14:08:01;;;;;;;1.85;0.93;;;;;;;;;;4960776;28;20095;-81
2023/03/27 14:11:17;;;;;;;4.25;0.60;;;;;;;;;;4995378;28;20094;-81
2023/03/27 14:13:57;;;;;;;6.82;0.88;;;;;;;;;;4965301;28;20042;-82
2023/03/27 14:16:46;;;;;;;2.38;0.63;;;;;;;;;;4999488;28;20049;-80
2023/03/27 14:19:21;;;;;;;4.00;0.45;;;;;;;;;;4986217;28;20462;-79
2023/03/27 14:21:55;;;;;;;2.97;0.77;;;;;;;;;;4977434;28;20050;-80
2023/03/27 14:24:34;;;;;;;4.25;0.80;;;;;;;;;;4961802;28;20034;-80
2023/03/27 14:27:15;;;;;;;1.88;0.70;;;;;;;;;;4974442;28;20046;-80
2023/03/27 14:29:43;;;;;;;2.17;0.40;;;;;;;;;;4971590;28;20137;-80
2023/03/27 14:32:16;;;;;;;1.77;0.50;;;;;;;;;;4961634;28;20097;-80
2023/03/27 14:35:35;;;;;;;1.55;0.45;;;;;;;;;;4959159;28;20442;-80
2023/03/27 14:38:25;;;;;;;4.57;0.70;;;;;;;;;;4947064;28;20050;-80
2023/03/27 14:40:58;;;;;;;0.80;0.40;;;;;;;;;;4950395;28;20141;-80
2023/03/27 14:43:57;;;;;;;0.60;0.28;;;;;;;;;;5017328;28;20050;-80
2023/03/27 14:46:59;;;;;;;5.78;0.43;;;;;;;;;;5019261;28;20071;-80
2023/03/27 14:49:34;;;;;;;3.90;0.75;;;;;;;;;;5002811;28;20099;-80
2023/03/27 14:52:06;;;;;;;2.70;0.43;;;;;;;;;;5019348;28;20052;-80
2023/03/27 14:55:00;;;;;;;6.95;1.00;;;;;;;;;;5019009;28;20580;-80
2023/03/27 14:57:35;;;;;;;3.33;0.52;;;;;;;;;;5017944;28;20052;-80
2023/03/27 15:00:06;;;;;;;4.88;0.80;;;;;;;;;;5003219;28;20103;-80
2023/03/27 15:02:44;;;;;;;5.90;0.73;;;;;;;;;;4985846;28;20139;-80
2023/03/27 15:05:15;;;;;;;3.13;0.70;;;;;;;;;;5002178;28;20038;-80
2023/03/27 15:07:48;;;;;;;3.35;0.70;;;;;;;;;;5019239;28;20144;-80
2023/03/27 15:10:27;;;;;;;6.78;0.93;;;;;;;;;;5007480;28;20049;-80
2023/03/27 15:13:31;;;;;;;2.65;0.60;;;;;;;;;;5018231;28;20077;-80
2023/03/27 15:15:59;;;;;;;3.15;0.60;;;;;;;;;;5018796;28;20051;-80
2023/03/27 15:18:57;;;;;;;3.70;0.80;;;;;;;;;;5015101;28;20128;-80
2023/03/27 15:21:43;;;;;;;4.50;0.95;;;;;;;;;;4967556;28;21710;-80
2023/03/27 15:24:27;;;;;;;6.82;1.10;;;;;;;;;;4965799;28;20499;-80
2023/03/27 15:27:25;;;;;;;4.07;0.73;;;;;;;;;;4942365;28;20030;-80
2023/03/27 15:30:01;;;;;;;1.55;0.55;;;;;;;;;;4988086;28;20046;-80
2023/03/27 15:32:43;;;;;;;4.60;0.60;;;;;;;;;;4987597;28;20125;-80
2023/03/27 15:35:20;;;;;;;4.70;0.80;;;;;;;;;;4971863;28;20054;-78
2023/03/27 15:37:47;;;;;;;3.42;0.65;;;;;;;;;;4983000;28;20050;-79
2023/03/27 15:40:35;;;;;;;5.82;0.82;;;;;;;;;;4987473;28;20041;-78
2023/03/27 15:43:03;;;;;;;9.40;1.17;;;;;;;;;;4982974;28;20034;-78
2023/03/27 15:45:38;;;;;;;4.53;0.55;;;;;;;;;;4982065;28;20077;-78
2023/03/27 15:48:17;;;;;;;4.57;0.55;;;;;;;;;;4990022;28;20078;-79
2023/03/27 15:51:07;;;;;;;5.45;0.73;;;;;;;;;;4987415;28;20112;-78
2023/03/27 15:53:44;;;;;;;4.05;0.73;;;;;;;;;;4989522;28;20046;-78
2023/03/27 15:56:39;;;;;;;3.47;0.90;;;;;;;;;;4970240;28;20041;-79
2023/03/27 15:59:11;;;;;;;1.65;0.60;;;;;;;;;;4982824;28;20049;-79
2023/03/27 16:01:53;;;;;;;5.93;0.52;;;;;;;;;;4972616;28;20042;-79
2023/03/27 16:04:37;;;;;;;2.70;0.70;;;;;;;;;;4971874;28;20125;-79
2023/03/27 16:07:44;;;;;;;8.27;0.90;;;;;;;;;;4974179;28;20049;-79
2023/03/27 16:10:27;;;;;;;1.88;0.40;;;;;;;;;;4988028;28;20057;-79
2023/03/27 16:13:02;;;;;;;2.70;0.65;;;;;;;;;;4988645;28;20042;-79
2023/03/27 16:16:01;;;;;;;5.03;0.50;;;;;;;;;;4974037;28;20392;-80
2023/03/27 16:18:34;;;;;;;4.63;0.85;;;;;;;;;;4988090;28;20042;-80
2023/03/27 16:21:05;;;;;;;1.85;0.32;;;;;;;;;;5001797;28;20038;-79
2023/03/27 16:23:36;;;;;;;3.22;0.70;;;;;;;;;;5004215;28;20442;-80
2023/03/27 16:26:05;;;;;;;2.47;0.55;;;;;;;;;;4968293;28;20046;-80
2023/03/27 16:29:03;;;;;;;3.63;0.65;;;;;;;;;;4958804;28;20030;-79